sensor_id;sensor_type;location;lat;lon;timestamp;P1;durP1;ratioP1;P2;durP2;ratioP2
69596;SDS011;70000;51.176;-115.568;2023-05-14T00:01:41;7.80;;;3.00;;
69596;SDS011;70000;51.176;-115.568;2023-05-14T00:04:23;6.50;;;2.70;;
69596;SDS011;70000;51.176;-115.568;2023-05-14T00:07:07;5.60;;;2.30;;
69596;SDS011;70000;51.176;-115.568;2023-05-14T00:10:12;6.10;;;2.40;;
69596;SDS011;70000;51.176;-115.568;2023-05-14T00:23:17;6.30;;;2.70;;
69596;SDS011;70000;51.176;-115.568;2023-05-14T00:26:12;7.60;;;2.80;;
69596;SDS011;70000;51.176;-115.568;2023-05-14T00:29:00;6.50;;;2.80;;
69596;SDS011;70000;51.176;-115.568;2023-05-14T00:31:42;7.00;;;2.90;;
69596;SDS011;70000;51.176;-115.568;2023-05-14T00:52:31;7.70;;;2.80;;
69596;SDS011;70000;51.176;-115.568;2023-05-14T00:56:07;6.50;;;2.40;;
69596;SDS011;70000;51.176;-115.568;2023-05-14T01:02:38;6.40;;;2.80;;
69596;SDS011;70000;51.176;-115.568;2023-05-14T01:14:22;7.70;;;2.70;;
69596;SDS011;70000;51.176;-115.568;2023-05-14T01:17:34;6.10;;;2.60;;
69596;SDS011;70000;51.176;-115.568;2023-05-14T01:21:04;6.70;;;2.70;;
69596;SDS011;70000;51.176;-115.568;2023-05-14T01:24:26;7.30;;;3.30;;
69596;SDS011;70000;51.176;-115.568;2023-05-14T01:38:59;7.60;;;3.00;;
69596;SDS011;70000;51.176;-115.568;2023-05-14T01:42:24;6.60;;;2.70;;
69596;SDS011;70000;51.176;-115.568;2023-05-14T01:45:57;6.60;;;2.50;;
69596;SDS011;70000;51.176;-115.568;2023-05-14T01:51:57;7.60;;;2.80;;
69596;SDS011;70000;51.176;-115.568;2023-05-14T01:58:15;7.30;;;2.40;;
69596;SDS011;70000;51.176;-115.568;2023-05-14T02:01:15;6.10;;;2.60;;
69596;SDS011;70000;51.176;-115.568;2023-05-14T02:04:17;8.00;;;3.10;;
69596;SDS011;70000;51.176;-115.568;2023-05-14T02:06:54;7.10;;;3.00;;
69596;SDS011;70000;51.176;-115.568;2023-05-14T02:09:23;6.90;;;2.50;;
69596;SDS011;70000;51.176;-115.568;2023-05-14T02:12:02;7.80;;;3.00;;
69596;SDS011;70000;51.176;-115.568;2023-05-14T02:14:44;8.20;;;2.90;;
69596;SDS011;70000;51.176;-115.568;2023-05-14T02:17:17;7.80;;;3.20;;
69596;SDS011;70000;51.176;-115.568;2023-05-14T02:19:46;7.20;;;3.40;;
69596;SDS011;70000;51.176;-115.568;2023-05-14T02:22:16;8.60;;;3.30;;
69596;SDS011;70000;51.176;-115.568;2023-05-14T02:25:25;8.00;;;3.30;;
69596;SDS011;70000;51.176;-115.568;2023-05-14T02:28:13;8.20;;;3.80;;
69596;SDS011;70000;51.176;-115.568;2023-05-14T02:31:29;7.90;;;3.30;;
69596;SDS011;70000;51.176;-115.568;2023-05-14T02:37:49;7.70;;;3.90;;
69596;SDS011;70000;51.176;-115.568;2023-05-14T02:40:50;10.00;;;4.30;;
69596;SDS011;70000;51.176;-115.568;2023-05-14T02:43:40;6.90;;;3.40;;
69596;SDS011;70000;51.176;-115.568;2023-05-14T02:46:47;8.00;;;3.60;;
69596;SDS011;70000;51.176;-115.568;2023-05-14T02:49:29;8.90;;;4.60;;
69596;SDS011;70000;51.176;-115.568;2023-05-14T02:52:28;10.60;;;5.20;;
69596;SDS011;70000;51.176;-115.568;2023-05-14T02:55:41;9.60;;;5.50;;
69596;SDS011;70000;51.176;-115.568;2023-05-14T02:58:53;8.20;;;4.20;;
69596;SDS011;70000;51.176;-115.568;2023-05-14T03:18:41;9.80;;;4.60;;
69596;SDS011;70000;51.176;-115.568;2023-05-14T03:21:36;9.10;;;4.40;;
69596;SDS011;70000;51.176;-115.568;2023-05-14T03:24:53;8.20;;;4.50;;
69596;SDS011;70000;51.176;-115.568;2023-05-14T03:27:49;9.10;;;4.60;;
69596;SDS011;70000;51.176;-115.568;2023-05-14T03:31:08;8.90;;;4.50;;
69596;SDS011;70000;51.176;-115.568;2023-05-14T03:40:26;10.50;;;5.00;;
69596;SDS011;70000;51.176;-115.568;2023-05-14T03:43:06;9.40;;;5.00;;
69596;SDS011;70000;51.176;-115.568;2023-05-14T03:46:19;9.10;;;5.30;;
69596;SDS011;70000;51.176;-115.568;2023-05-14T03:52:08;10.60;;;5.60;;
69596;SDS011;70000;51.176;-115.568;2023-05-14T03:55:16;12.90;;;6.20;;
69596;SDS011;70000;51.176;-115.568;2023-05-14T03:57:57;12.10;;;7.70;;
69596;SDS011;70000;51.176;-115.568;2023-05-14T04:00:36;10.50;;;6.50;;
69596;SDS011;70000;51.176;-115.568;2023-05-14T04:03:25;11.70;;;6.40;;
69596;SDS011;70000;51.176;-115.568;2023-05-14T04:05:54;13.20;;;6.90;;
69596;SDS011;70000;51.176;-115.568;2023-05-14T04:08:47;12.20;;;7.10;;
69596;SDS011;70000;51.176;-115.568;2023-05-14T04:11:42;12.10;;;7.00;;
69596;SDS011;70000;51.176;-115.568;2023-05-14T04:14:46;11.20;;;6.70;;
69596;SDS011;70000;51.176;-115.568;2023-05-14T04:17:40;11.90;;;6.90;;
69596;SDS011;70000;51.176;-115.568;2023-05-14T04:20:42;12.70;;;6.90;;
69596;SDS011;70000;51.176;-115.568;2023-05-14T04:23:25;10.90;;;6.70;;
69596;SDS011;70000;51.176;-115.568;2023-05-14T04:26:08;11.00;;;6.00;;
69596;SDS011;70000;51.176;-115.568;2023-05-14T04:28:43;9.80;;;5.10;;
69596;SDS011;70000;51.176;-115.568;2023-05-14T04:31:41;12.80;;;5.30;;
69596;SDS011;70000;51.176;-115.568;2023-05-14T04:34:10;10.60;;;6.00;;
69596;SDS011;70000;51.176;-115.568;2023-05-14T04:36:43;10.60;;;6.70;;
69596;SDS011;70000;51.176;-115.568;2023-05-14T04:39:12;14.70;;;6.80;;
69596;SDS011;70000;51.176;-115.568;2023-05-14T04:41:44;11.80;;;6.90;;
69596;SDS011;70000;51.176;-115.568;2023-05-14T04:44:24;12.90;;;7.10;;
69596;SDS011;70000;51.176;-115.568;2023-05-14T04:46:56;10.40;;;5.20;;
69596;SDS011;70000;51.176;-115.568;2023-05-14T04:49:33;10.80;;;5.50;;
69596;SDS011;70000;51.176;-115.568;2023-05-14T04:52:05;9.00;;;4.80;;
69596;SDS011;70000;51.176;-115.568;2023-05-14T04:55:10;9.80;;;5.10;;
69596;SDS011;70000;51.176;-115.568;2023-05-14T04:57:45;10.20;;;5.70;;
69596;SDS011;70000;51.176;-115.568;2023-05-14T05:00:21;11.60;;;5.80;;
69596;SDS011;70000;51.176;-115.568;2023-05-14T05:03:03;10.00;;;5.90;;
69596;SDS011;70000;51.176;-115.568;2023-05-14T05:05:55;10.70;;;6.30;;
69596;SDS011;70000;51.176;-115.568;2023-05-14T05:08:32;9.60;;;5.30;;
69596;SDS011;70000;51.176;-115.568;2023-05-14T05:11:10;9.80;;;5.40;;
69596;SDS011;70000;51.176;-115.568;2023-05-14T05:13:40;9.40;;;5.10;;
69596;SDS011;70000;51.176;-115.568;2023-05-14T05:16:10;9.70;;;5.20;;
69596;SDS011;70000;51.176;-115.568;2023-05-14T05:18:42;8.20;;;4.50;;
69596;SDS011;70000;51.176;-115.568;2023-05-14T05:21:36;9.40;;;4.90;;
69596;SDS011;70000;51.176;-115.568;2023-05-14T05:24:28;9.50;;;5.40;;
69596;SDS011;70000;51.176;-115.568;2023-05-14T05:26:58;9.80;;;5.60;;
69596;SDS011;70000;51.176;-115.568;2023-05-14T05:29:40;8.90;;;5.40;;
69596;SDS011;70000;51.176;-115.568;2023-05-14T05:32:24;9.30;;;5.00;;
69596;SDS011;70000;51.176;-115.568;2023-05-14T05:34:54;8.90;;;4.80;;
69596;SDS011;70000;51.176;-115.568;2023-05-14T05:37:23;11.80;;;5.50;;
69596;SDS011;70000;51.176;-115.568;2023-05-14T05:39:53;8.10;;;4.40;;
69596;SDS011;70000;51.176;-115.568;2023-05-14T05:42:22;12.20;;;5.70;;
69596;SDS011;70000;51.176;-115.568;2023-05-14T05:44:51;9.70;;;5.30;;
69596;SDS011;70000;51.176;-115.568;2023-05-14T05:47:20;9.40;;;5.50;;
69596;SDS011;70000;51.176;-115.568;2023-05-14T05:49:52;9.10;;;4.90;;
69596;SDS011;70000;51.176;-115.568;2023-05-14T05:52:23;9.60;;;5.20;;
69596;SDS011;70000;51.176;-115.568;2023-05-14T05:54:55;10.00;;;5.20;;
69596;SDS011;70000;51.176;-115.568;2023-05-14T05:57:24;8.20;;;4.70;;
69596;SDS011;70000;51.176;-115.568;2023-05-14T05:59:54;9.60;;;4.60;;
69596;SDS011;70000;51.176;-115.568;2023-05-14T06:02:23;8.90;;;4.60;;
69596;SDS011;70000;51.176;-115.568;2023-05-14T06:04:52;8.40;;;4.40;;
69596;SDS011;70000;51.176;-115.568;2023-05-14T06:07:21;9.60;;;5.40;;
69596;SDS011;70000;51.176;-115.568;2023-05-14T06:09:50;9.10;;;5.50;;
69596;SDS011;70000;51.176;-115.568;2023-05-14T06:12:19;9.10;;;5.00;;
69596;SDS011;70000;51.176;-115.568;2023-05-14T06:14:48;9.50;;;4.90;;
69596;SDS011;70000;51.176;-115.568;2023-05-14T06:17:18;9.40;;;4.90;;
69596;SDS011;70000;51.176;-115.568;2023-05-14T06:19:51;8.80;;;5.10;;
69596;SDS011;70000;51.176;-115.568;2023-05-14T06:22:20;11.00;;;5.00;;
69596;SDS011;70000;51.176;-115.568;2023-05-14T06:24:50;9.80;;;4.60;;
69596;SDS011;70000;51.176;-115.568;2023-05-14T06:27:19;10.20;;;4.90;;
69596;SDS011;70000;51.176;-115.568;2023-05-14T06:29:48;8.60;;;4.90;;
69596;SDS011;70000;51.176;-115.568;2023-05-14T06:32:17;9.20;;;5.30;;
69596;SDS011;70000;51.176;-115.568;2023-05-14T06:34:46;10.30;;;5.70;;
69596;SDS011;70000;51.176;-115.568;2023-05-14T06:37:15;9.20;;;5.10;;
69596;SDS011;70000;51.176;-115.568;2023-05-14T06:39:48;9.70;;;4.90;;
69596;SDS011;70000;51.176;-115.568;2023-05-14T06:42:21;9.40;;;4.60;;
69596;SDS011;70000;51.176;-115.568;2023-05-14T06:44:50;10.30;;;5.40;;
69596;SDS011;70000;51.176;-115.568;2023-05-14T06:47:19;10.30;;;5.30;;
69596;SDS011;70000;51.176;-115.568;2023-05-14T06:49:48;10.00;;;5.00;;
69596;SDS011;70000;51.176;-115.568;2023-05-14T06:52:17;8.90;;;5.10;;
69596;SDS011;70000;51.176;-115.568;2023-05-14T06:54:46;9.10;;;4.70;;
69596;SDS011;70000;51.176;-115.568;2023-05-14T06:57:15;10.90;;;5.60;;
69596;SDS011;70000;51.176;-115.568;2023-05-14T06:59:44;9.10;;;5.50;;
69596;SDS011;70000;51.176;-115.568;2023-05-14T07:02:14;9.20;;;5.80;;
69596;SDS011;70000;51.176;-115.568;2023-05-14T07:04:43;9.80;;;5.00;;
69596;SDS011;70000;51.176;-115.568;2023-05-14T07:07:14;8.60;;;4.60;;
69596;SDS011;70000;51.176;-115.568;2023-05-14T07:09:47;9.40;;;5.10;;
69596;SDS011;70000;51.176;-115.568;2023-05-14T07:12:16;9.80;;;5.00;;
69596;SDS011;70000;51.176;-115.568;2023-05-14T07:14:46;8.50;;;4.90;;
69596;SDS011;70000;51.176;-115.568;2023-05-14T07:17:15;10.80;;;5.10;;
69596;SDS011;70000;51.176;-115.568;2023-05-14T07:19:44;10.80;;;5.00;;
69596;SDS011;70000;51.176;-115.568;2023-05-14T07:22:15;9.20;;;5.30;;
69596;SDS011;70000;51.176;-115.568;2023-05-14T07:24:44;9.30;;;5.10;;
69596;SDS011;70000;51.176;-115.568;2023-05-14T07:27:13;8.90;;;5.10;;
69596;SDS011;70000;51.176;-115.568;2023-05-14T07:29:43;9.60;;;5.40;;
69596;SDS011;70000;51.176;-115.568;2023-05-14T07:32:13;9.70;;;5.30;;
69596;SDS011;70000;51.176;-115.568;2023-05-14T07:34:46;9.70;;;5.00;;
69596;SDS011;70000;51.176;-115.568;2023-05-14T07:37:18;9.10;;;4.90;;
69596;SDS011;70000;51.176;-115.568;2023-05-14T07:39:58;9.90;;;5.20;;
69596;SDS011;70000;51.176;-115.568;2023-05-14T07:42:47;9.30;;;4.80;;
69596;SDS011;70000;51.176;-115.568;2023-05-14T07:45:16;9.60;;;4.90;;
69596;SDS011;70000;51.176;-115.568;2023-05-14T07:47:51;10.10;;;5.10;;
69596;SDS011;70000;51.176;-115.568;2023-05-14T07:50:21;10.80;;;5.10;;
69596;SDS011;70000;51.176;-115.568;2023-05-14T07:52:51;9.80;;;5.60;;
69596;SDS011;70000;51.176;-115.568;2023-05-14T07:55:22;9.20;;;5.30;;
69596;SDS011;70000;51.176;-115.568;2023-05-14T07:57:53;8.90;;;5.30;;
69596;SDS011;70000;51.176;-115.568;2023-05-14T08:00:22;9.40;;;4.80;;
69596;SDS011;70000;51.176;-115.568;2023-05-14T08:02:52;10.20;;;5.10;;
69596;SDS011;70000;51.176;-115.568;2023-05-14T08:05:22;10.00;;;5.10;;
69596;SDS011;70000;51.176;-115.568;2023-05-14T08:07:57;10.20;;;5.20;;
69596;SDS011;70000;51.176;-115.568;2023-05-14T08:10:26;10.50;;;5.20;;
69596;SDS011;70000;51.176;-115.568;2023-05-14T08:12:55;8.90;;;4.90;;
69596;SDS011;70000;51.176;-115.568;2023-05-14T08:15:24;9.60;;;5.70;;
69596;SDS011;70000;51.176;-115.568;2023-05-14T08:17:54;10.00;;;5.40;;
69596;SDS011;70000;51.176;-115.568;2023-05-14T08:20:23;10.70;;;5.40;;
69596;SDS011;70000;51.176;-115.568;2023-05-14T08:22:52;10.30;;;5.50;;
69596;SDS011;70000;51.176;-115.568;2023-05-14T08:25:31;10.00;;;5.30;;
69596;SDS011;70000;51.176;-115.568;2023-05-14T08:28:03;9.10;;;4.90;;
69596;SDS011;70000;51.176;-115.568;2023-05-14T08:30:32;11.00;;;5.20;;
69596;SDS011;70000;51.176;-115.568;2023-05-14T08:33:02;9.70;;;5.70;;
69596;SDS011;70000;51.176;-115.568;2023-05-14T08:35:31;9.60;;;4.70;;
69596;SDS011;70000;51.176;-115.568;2023-05-14T08:38:03;10.30;;;5.60;;
69596;SDS011;70000;51.176;-115.568;2023-05-14T08:40:33;10.80;;;5.70;;
69596;SDS011;70000;51.176;-115.568;2023-05-14T08:43:03;11.00;;;5.20;;
69596;SDS011;70000;51.176;-115.568;2023-05-14T08:45:34;10.00;;;4.90;;
69596;SDS011;70000;51.176;-115.568;2023-05-14T08:48:09;10.50;;;5.00;;
69596;SDS011;70000;51.176;-115.568;2023-05-14T08:50:46;9.60;;;5.30;;
69596;SDS011;70000;51.176;-115.568;2023-05-14T08:53:19;8.80;;;4.50;;
69596;SDS011;70000;51.176;-115.568;2023-05-14T08:55:52;8.80;;;4.80;;
69596;SDS011;70000;51.176;-115.568;2023-05-14T08:58:23;10.30;;;5.00;;
69596;SDS011;70000;51.176;-115.568;2023-05-14T09:00:56;9.40;;;4.70;;
69596;SDS011;70000;51.176;-115.568;2023-05-14T09:03:34;10.00;;;5.00;;
69596;SDS011;70000;51.176;-115.568;2023-05-14T09:06:07;9.60;;;5.70;;
69596;SDS011;70000;51.176;-115.568;2023-05-14T09:08:38;9.70;;;5.20;;
69596;SDS011;70000;51.176;-115.568;2023-05-14T09:11:07;9.60;;;5.00;;
69596;SDS011;70000;51.176;-115.568;2023-05-14T09:13:40;9.60;;;5.40;;
69596;SDS011;70000;51.176;-115.568;2023-05-14T09:16:12;9.60;;;5.30;;
69596;SDS011;70000;51.176;-115.568;2023-05-14T09:18:45;9.40;;;4.70;;
69596;SDS011;70000;51.176;-115.568;2023-05-14T09:21:17;9.40;;;5.00;;
69596;SDS011;70000;51.176;-115.568;2023-05-14T09:23:52;8.50;;;4.60;;
69596;SDS011;70000;51.176;-115.568;2023-05-14T09:26:30;9.50;;;4.90;;
69596;SDS011;70000;51.176;-115.568;2023-05-14T09:29:03;9.20;;;5.10;;
69596;SDS011;70000;51.176;-115.568;2023-05-14T09:31:32;10.10;;;5.30;;
69596;SDS011;70000;51.176;-115.568;2023-05-14T09:34:28;9.50;;;4.90;;
69596;SDS011;70000;51.176;-115.568;2023-05-14T09:37:09;9.40;;;4.60;;
69596;SDS011;70000;51.176;-115.568;2023-05-14T09:39:43;10.70;;;4.80;;
69596;SDS011;70000;51.176;-115.568;2023-05-14T09:42:27;10.40;;;5.50;;
69596;SDS011;70000;51.176;-115.568;2023-05-14T09:45:12;10.00;;;5.00;;
69596;SDS011;70000;51.176;-115.568;2023-05-14T09:47:49;10.30;;;5.10;;
69596;SDS011;70000;51.176;-115.568;2023-05-14T09:50:27;9.90;;;5.30;;
69596;SDS011;70000;51.176;-115.568;2023-05-14T09:53:06;8.50;;;4.40;;
69596;SDS011;70000;51.176;-115.568;2023-05-14T09:55:39;9.40;;;5.00;;
69596;SDS011;70000;51.176;-115.568;2023-05-14T09:58:17;9.80;;;4.80;;
69596;SDS011;70000;51.176;-115.568;2023-05-14T10:00:46;8.80;;;4.30;;
69596;SDS011;70000;51.176;-115.568;2023-05-14T10:03:17;9.10;;;4.90;;
69596;SDS011;70000;51.176;-115.568;2023-05-14T10:05:49;9.70;;;5.00;;
69596;SDS011;70000;51.176;-115.568;2023-05-14T10:08:47;9.80;;;5.00;;
69596;SDS011;70000;51.176;-115.568;2023-05-14T10:11:24;10.00;;;4.70;;
69596;SDS011;70000;51.176;-115.568;2023-05-14T10:14:20;9.10;;;4.50;;
69596;SDS011;70000;51.176;-115.568;2023-05-14T10:17:07;9.60;;;4.80;;
69596;SDS011;70000;51.176;-115.568;2023-05-14T10:19:56;10.20;;;4.40;;
69596;SDS011;70000;51.176;-115.568;2023-05-14T10:22:35;9.10;;;4.50;;
69596;SDS011;70000;51.176;-115.568;2023-05-14T10:25:22;10.00;;;4.90;;
69596;SDS011;70000;51.176;-115.568;2023-05-14T10:31:10;8.60;;;4.50;;
69596;SDS011;70000;51.176;-115.568;2023-05-14T10:34:06;9.50;;;5.30;;
69596;SDS011;70000;51.176;-115.568;2023-05-14T10:37:22;10.60;;;5.00;;
69596;SDS011;70000;51.176;-115.568;2023-05-14T10:40:06;9.70;;;4.80;;
69596;SDS011;70000;51.176;-115.568;2023-05-14T10:42:46;9.40;;;4.50;;
69596;SDS011;70000;51.176;-115.568;2023-05-14T10:45:23;8.80;;;4.40;;
69596;SDS011;70000;51.176;-115.568;2023-05-14T10:47:58;13.10;;;4.40;;
69596;SDS011;70000;51.176;-115.568;2023-05-14T10:50:38;10.30;;;5.10;;
69596;SDS011;70000;51.176;-115.568;2023-05-14T10:53:38;10.80;;;4.70;;
69596;SDS011;70000;51.176;-115.568;2023-05-14T10:56:13;9.50;;;4.10;;
69596;SDS011;70000;51.176;-115.568;2023-05-14T10:58:51;10.10;;;4.20;;
69596;SDS011;70000;51.176;-115.568;2023-05-14T11:01:56;8.00;;;4.20;;
69596;SDS011;70000;51.176;-115.568;2023-05-14T11:07:49;9.60;;;4.70;;
69596;SDS011;70000;51.176;-115.568;2023-05-14T11:13:30;8.30;;;4.40;;
69596;SDS011;70000;51.176;-115.568;2023-05-14T11:16:04;8.80;;;4.50;;
69596;SDS011;70000;51.176;-115.568;2023-05-14T11:19:08;10.40;;;5.00;;
69596;SDS011;70000;51.176;-115.568;2023-05-14T11:21:45;8.90;;;4.60;;
69596;SDS011;70000;51.176;-115.568;2023-05-14T11:24:52;9.30;;;4.70;;
69596;SDS011;70000;51.176;-115.568;2023-05-14T11:27:30;9.50;;;4.70;;
69596;SDS011;70000;51.176;-115.568;2023-05-14T11:30:25;9.10;;;4.60;;
69596;SDS011;70000;51.176;-115.568;2023-05-14T11:33:12;8.50;;;4.50;;
69596;SDS011;70000;51.176;-115.568;2023-05-14T11:36:02;10.40;;;4.60;;
69596;SDS011;70000;51.176;-115.568;2023-05-14T11:39:16;9.90;;;4.70;;
69596;SDS011;70000;51.176;-115.568;2023-05-14T11:42:04;9.80;;;4.70;;
69596;SDS011;70000;51.176;-115.568;2023-05-14T11:44:51;9.40;;;4.60;;
69596;SDS011;70000;51.176;-115.568;2023-05-14T11:47:47;9.80;;;4.70;;
69596;SDS011;70000;51.176;-115.568;2023-05-14T11:50:28;8.80;;;4.60;;
69596;SDS011;70000;51.176;-115.568;2023-05-14T11:53:36;9.00;;;4.90;;
69596;SDS011;70000;51.176;-115.568;2023-05-14T11:56:23;8.50;;;4.40;;
69596;SDS011;70000;51.176;-115.568;2023-05-14T11:59:33;8.40;;;4.80;;
69596;SDS011;70000;51.176;-115.568;2023-05-14T12:02:30;9.50;;;5.10;;
69596;SDS011;70000;51.176;-115.568;2023-05-14T12:05:27;8.70;;;4.70;;
69596;SDS011;70000;51.176;-115.568;2023-05-14T12:08:00;8.50;;;4.50;;
69596;SDS011;70000;51.176;-115.568;2023-05-14T12:10:52;8.70;;;4.60;;
69596;SDS011;70000;51.176;-115.568;2023-05-14T12:13:30;9.10;;;4.10;;
69596;SDS011;70000;51.176;-115.568;2023-05-14T12:16:03;8.70;;;4.80;;
69596;SDS011;70000;51.176;-115.568;2023-05-14T12:18:36;9.70;;;4.90;;
69596;SDS011;70000;51.176;-115.568;2023-05-14T12:21:14;9.00;;;4.70;;
69596;SDS011;70000;51.176;-115.568;2023-05-14T12:23:55;8.90;;;5.10;;
69596;SDS011;70000;51.176;-115.568;2023-05-14T12:26:43;9.10;;;4.70;;
69596;SDS011;70000;51.176;-115.568;2023-05-14T12:29:39;8.50;;;4.30;;
69596;SDS011;70000;51.176;-115.568;2023-05-14T12:32:16;8.70;;;4.60;;
69596;SDS011;70000;51.176;-115.568;2023-05-14T12:34:51;9.20;;;4.10;;
69596;SDS011;70000;51.176;-115.568;2023-05-14T12:37:49;8.40;;;4.40;;
69596;SDS011;70000;51.176;-115.568;2023-05-14T12:40:41;9.30;;;4.20;;
69596;SDS011;70000;51.176;-115.568;2023-05-14T12:43:25;8.60;;;4.30;;
69596;SDS011;70000;51.176;-115.568;2023-05-14T12:46:31;9.00;;;4.00;;
69596;SDS011;70000;51.176;-115.568;2023-05-14T12:49:25;8.00;;;3.80;;
69596;SDS011;70000;51.176;-115.568;2023-05-14T12:51:54;8.40;;;4.30;;
69596;SDS011;70000;51.176;-115.568;2023-05-14T12:55:10;8.50;;;4.20;;
69596;SDS011;70000;51.176;-115.568;2023-05-14T12:57:50;8.10;;;3.90;;
69596;SDS011;70000;51.176;-115.568;2023-05-14T13:00:58;7.80;;;3.80;;
69596;SDS011;70000;51.176;-115.568;2023-05-14T13:04:11;7.60;;;3.80;;
69596;SDS011;70000;51.176;-115.568;2023-05-14T13:06:53;8.70;;;4.10;;
69596;SDS011;70000;51.176;-115.568;2023-05-14T13:09:43;8.80;;;3.80;;
69596;SDS011;70000;51.176;-115.568;2023-05-14T13:12:41;9.90;;;4.80;;
69596;SDS011;70000;51.176;-115.568;2023-05-14T13:15:25;8.80;;;4.80;;
69596;SDS011;70000;51.176;-115.568;2023-05-14T13:18:16;8.30;;;4.10;;
69596;SDS011;70000;51.176;-115.568;2023-05-14T13:21:00;8.90;;;4.10;;
69596;SDS011;70000;51.176;-115.568;2023-05-14T13:23:56;8.00;;;3.90;;
69596;SDS011;70000;51.176;-115.568;2023-05-14T13:26:52;9.00;;;4.70;;
69596;SDS011;70000;51.176;-115.568;2023-05-14T13:29:54;10.20;;;4.70;;
69596;SDS011;70000;51.176;-115.568;2023-05-14T13:32:46;8.70;;;4.60;;
69596;SDS011;70000;51.176;-115.568;2023-05-14T13:41:20;9.40;;;4.50;;
69596;SDS011;70000;51.176;-115.568;2023-05-14T13:43:56;8.70;;;4.60;;
69596;SDS011;70000;51.176;-115.568;2023-05-14T13:46:45;8.90;;;4.40;;
69596;SDS011;70000;51.176;-115.568;2023-05-14T13:49:44;9.90;;;4.70;;
69596;SDS011;70000;51.176;-115.568;2023-05-14T13:52:43;9.00;;;4.50;;
69596;SDS011;70000;51.176;-115.568;2023-05-14T13:55:18;8.60;;;4.60;;
69596;SDS011;70000;51.176;-115.568;2023-05-14T13:58:08;9.30;;;4.50;;
69596;SDS011;70000;51.176;-115.568;2023-05-14T14:01:17;10.20;;;5.20;;
69596;SDS011;70000;51.176;-115.568;2023-05-14T14:03:57;10.90;;;4.30;;
69596;SDS011;70000;51.176;-115.568;2023-05-14T14:07:02;8.60;;;4.40;;
69596;SDS011;70000;51.176;-115.568;2023-05-14T14:09:47;9.90;;;4.60;;
69596;SDS011;70000;51.176;-115.568;2023-05-14T14:12:37;9.40;;;4.60;;
69596;SDS011;70000;51.176;-115.568;2023-05-14T14:15:25;9.30;;;4.70;;
69596;SDS011;70000;51.176;-115.568;2023-05-14T14:18:20;10.30;;;4.40;;
69596;SDS011;70000;51.176;-115.568;2023-05-14T14:21:04;10.30;;;4.60;;
69596;SDS011;70000;51.176;-115.568;2023-05-14T14:27:07;8.50;;;4.70;;
69596;SDS011;70000;51.176;-115.568;2023-05-14T14:30:03;9.40;;;4.50;;
69596;SDS011;70000;51.176;-115.568;2023-05-14T14:32:43;8.40;;;4.30;;
69596;SDS011;70000;51.176;-115.568;2023-05-14T14:35:24;8.60;;;4.50;;
69596;SDS011;70000;51.176;-115.568;2023-05-14T14:38:25;7.80;;;4.30;;
69596;SDS011;70000;51.176;-115.568;2023-05-14T14:41:22;9.70;;;5.30;;
69596;SDS011;70000;51.176;-115.568;2023-05-14T14:44:07;7.80;;;4.70;;
69596;SDS011;70000;51.176;-115.568;2023-05-14T14:46:49;9.10;;;4.90;;
69596;SDS011;70000;51.176;-115.568;2023-05-14T14:49:27;8.50;;;4.40;;
69596;SDS011;70000;51.176;-115.568;2023-05-14T14:52:20;9.50;;;5.20;;
69596;SDS011;70000;51.176;-115.568;2023-05-14T14:54:56;9.00;;;5.30;;
69596;SDS011;70000;51.176;-115.568;2023-05-14T14:57:35;8.90;;;4.40;;
69596;SDS011;70000;51.176;-115.568;2023-05-14T15:00:14;9.30;;;5.10;;
69596;SDS011;70000;51.176;-115.568;2023-05-14T15:03:05;9.30;;;4.40;;
69596;SDS011;70000;51.176;-115.568;2023-05-14T15:05:55;10.60;;;4.80;;
69596;SDS011;70000;51.176;-115.568;2023-05-14T15:08:34;9.10;;;4.70;;
69596;SDS011;70000;51.176;-115.568;2023-05-14T15:11:14;9.50;;;4.90;;
69596;SDS011;70000;51.176;-115.568;2023-05-14T15:13:58;9.70;;;5.10;;
69596;SDS011;70000;51.176;-115.568;2023-05-14T15:16:31;9.20;;;4.70;;
69596;SDS011;70000;51.176;-115.568;2023-05-14T15:19:10;8.90;;;4.90;;
69596;SDS011;70000;51.176;-115.568;2023-05-14T15:21:40;9.20;;;4.40;;
69596;SDS011;70000;51.176;-115.568;2023-05-14T15:24:27;9.50;;;4.90;;
69596;SDS011;70000;51.176;-115.568;2023-05-14T15:27:04;10.00;;;4.50;;
69596;SDS011;70000;51.176;-115.568;2023-05-14T15:29:43;8.20;;;4.40;;
69596;SDS011;70000;51.176;-115.568;2023-05-14T15:32:25;10.10;;;4.80;;
69596;SDS011;70000;51.176;-115.568;2023-05-14T15:34:55;11.30;;;4.90;;
69596;SDS011;70000;51.176;-115.568;2023-05-14T15:37:40;9.80;;;4.70;;
69596;SDS011;70000;51.176;-115.568;2023-05-14T15:40:22;8.80;;;4.80;;
69596;SDS011;70000;51.176;-115.568;2023-05-14T15:46:34;8.30;;;4.90;;
69596;SDS011;70000;51.176;-115.568;2023-05-14T15:49:07;8.60;;;4.60;;
69596;SDS011;70000;51.176;-115.568;2023-05-14T15:51:43;8.30;;;4.30;;
69596;SDS011;70000;51.176;-115.568;2023-05-14T15:54:17;10.40;;;4.40;;
69596;SDS011;70000;51.176;-115.568;2023-05-14T15:56:50;8.30;;;4.20;;
69596;SDS011;70000;51.176;-115.568;2023-05-14T15:59:35;11.00;;;4.30;;
69596;SDS011;70000;51.176;-115.568;2023-05-14T16:02:04;9.00;;;4.30;;
69596;SDS011;70000;51.176;-115.568;2023-05-14T16:04:56;8.30;;;4.40;;
69596;SDS011;70000;51.176;-115.568;2023-05-14T16:07:25;10.50;;;4.80;;
69596;SDS011;70000;51.176;-115.568;2023-05-14T16:09:58;8.90;;;4.50;;
69596;SDS011;70000;51.176;-115.568;2023-05-14T16:12:27;8.50;;;5.00;;
69596;SDS011;70000;51.176;-115.568;2023-05-14T16:14:57;8.90;;;5.10;;
69596;SDS011;70000;51.176;-115.568;2023-05-14T16:17:27;9.10;;;5.00;;
69596;SDS011;70000;51.176;-115.568;2023-05-14T16:19:59;9.60;;;5.00;;
69596;SDS011;70000;51.176;-115.568;2023-05-14T16:22:28;8.90;;;5.10;;
69596;SDS011;70000;51.176;-115.568;2023-05-14T16:25:01;9.90;;;5.80;;
69596;SDS011;70000;51.176;-115.568;2023-05-14T16:27:39;9.70;;;4.90;;
69596;SDS011;70000;51.176;-115.568;2023-05-14T16:30:11;10.30;;;4.80;;
69596;SDS011;70000;51.176;-115.568;2023-05-14T16:40:08;9.00;;;4.90;;
69596;SDS011;70000;51.176;-115.568;2023-05-14T16:43:14;9.30;;;5.10;;
69596;SDS011;70000;51.176;-115.568;2023-05-14T16:45:43;8.80;;;5.10;;
69596;SDS011;70000;51.176;-115.568;2023-05-14T16:48:13;9.40;;;5.00;;
69596;SDS011;70000;51.176;-115.568;2023-05-14T16:50:42;9.60;;;4.80;;
69596;SDS011;70000;51.176;-115.568;2023-05-14T16:53:11;10.90;;;5.60;;
69596;SDS011;70000;51.176;-115.568;2023-05-14T16:55:40;9.50;;;5.20;;
69596;SDS011;70000;51.176;-115.568;2023-05-14T16:58:09;8.90;;;5.30;;
69596;SDS011;70000;51.176;-115.568;2023-05-14T17:00:38;9.50;;;5.40;;
69596;SDS011;70000;51.176;-115.568;2023-05-14T17:03:07;12.50;;;5.80;;
69596;SDS011;70000;51.176;-115.568;2023-05-14T17:05:43;10.00;;;5.70;;
69596;SDS011;70000;51.176;-115.568;2023-05-14T17:08:12;11.20;;;5.60;;
69596;SDS011;70000;51.176;-115.568;2023-05-14T17:10:41;8.60;;;5.20;;
69596;SDS011;70000;51.176;-115.568;2023-05-14T17:13:10;10.60;;;5.60;;
69596;SDS011;70000;51.176;-115.568;2023-05-14T17:15:40;9.80;;;5.10;;
69596;SDS011;70000;51.176;-115.568;2023-05-14T17:18:09;9.40;;;5.00;;
69596;SDS011;70000;51.176;-115.568;2023-05-14T17:20:38;8.30;;;4.60;;
69596;SDS011;70000;51.176;-115.568;2023-05-14T17:23:11;9.40;;;5.00;;
69596;SDS011;70000;51.176;-115.568;2023-05-14T17:25:40;11.00;;;5.20;;
69596;SDS011;70000;51.176;-115.568;2023-05-14T17:28:09;9.40;;;5.20;;